createdAt,value
2022-10-28T00:04:03.317Z,102504.41
2022-10-28T00:09:05.582Z,102505.53
2022-10-28T00:14:06.586Z,102503.94
2022-10-28T00:19:06.850Z,102506.81
2022-10-28T00:24:06.669Z,102507.31
2022-10-28T00:29:06.788Z,102512.31
2022-10-28T00:34:07.342Z,102494.16
2022-10-28T00:39:07.632Z,102506.38
2022-10-28T00:44:19.006Z,102507.63
2022-10-28T00:49:19.873Z,102500.06
2022-10-28T00:54:17.357Z,102501.16
2022-10-28T00:59:16.615Z,102498.06
2022-10-28T01:04:13.469Z,102499.13
2022-10-28T01:09:12.865Z,102497.38
2022-10-28T01:14:18.427Z,102497.44
2022-10-28T01:19:29.656Z,102504.00
2022-10-28T01:24:38.800Z,102502.19
2022-10-28T01:29:49.233Z,102503.38
2022-10-28T01:34:58.012Z,102499.19
2022-10-28T01:39:59.103Z,102492.72
2022-10-28T01:45:01.364Z,102497.69
2022-10-28T01:50:03.614Z,102501.84
2022-10-28T01:55:02.971Z,102500.72
2022-10-28T02:00:09.962Z,102497.69
2022-10-28T02:05:24.889Z,102492.72
2022-10-28T02:10:33.573Z,102476.72
2022-10-28T02:15:38.439Z,102498.53
2022-10-28T02:20:39.174Z,102498.78
2022-10-28T02:25:42.106Z,102509.69
2022-10-28T02:30:49.817Z,102507.13
2022-10-28T02:35:51.099Z,102507.78
2022-10-28T02:45:55.617Z,102505.63
2022-10-28T02:50:54.638Z,102504.50
2022-10-28T02:55:57.431Z,102509.16
2022-10-28T03:00:54.224Z,102505.00
2022-10-28T03:05:50.881Z,102499.97
2022-10-28T03:10:47.566Z,102506.84
2022-10-28T03:15:46.433Z,102508.94
2022-10-28T03:20:43.314Z,102508.84
2022-10-28T03:25:40.044Z,102517.03
2022-10-28T03:30:37.932Z,102509.97
2022-10-28T03:35:35.172Z,102509.03
2022-10-28T03:40:31.783Z,102504.97
2022-10-28T03:50:26.859Z,102509.91
2022-10-28T03:55:25.110Z,102510.13
2022-10-28T04:00:24.425Z,102502.69
2022-10-28T04:05:23.706Z,102507.63
2022-10-28T04:10:22.049Z,102509.50
2022-10-28T04:15:22.323Z,102513.59
2022-10-28T04:20:19.839Z,102513.66
2022-10-28T04:25:19.699Z,102520.41
2022-10-28T04:30:19.064Z,102524.16
2022-10-28T04:35:18.098Z,102532.56
2022-10-28T04:40:14.911Z,102521.81
2022-10-28T04:45:11.608Z,102533.03
2022-10-28T04:50:19.229Z,102537.41
2022-10-28T04:55:15.991Z,102544.38
2022-10-28T05:00:13.458Z,102545.53
2022-10-28T05:05:11.301Z,102540.38
2022-10-28T05:10:09.345Z,102542.50
2022-10-28T05:15:06.596Z,102557.63
2022-10-28T05:20:03.611Z,102563.03
2022-10-28T05:25:00.173Z,102563.44
2022-10-28T05:29:57.360Z,102564.16
2022-10-28T05:34:55.980Z,102568.66
2022-10-28T05:39:52.523Z,102565.34
2022-10-28T05:44:49.060Z,102560.31
2022-10-28T05:49:47.515Z,102572.22
2022-10-28T05:54:44.246Z,102572.81
2022-10-28T05:59:43.739Z,102573.72
2022-10-28T06:04:40.595Z,102583.03
2022-10-28T06:09:38.593Z,102582.88
2022-10-28T06:14:33.654Z,102583.66
2022-10-28T06:19:30.394Z,102590.91
2022-10-28T06:24:28.308Z,102587.22
2022-10-28T06:29:36.853Z,102589.00
2022-10-28T06:34:37.262Z,102596.31
2022-10-28T06:39:36.384Z,102597.28
2022-10-28T06:44:34.005Z,102600.75
2022-10-28T06:49:33.350Z,102591.41
2022-10-28T06:54:39.334Z,102595.28
2022-10-28T06:59:37.775Z,102592.16
2022-10-28T07:04:34.394Z,102599.25
2022-10-28T07:09:31.179Z,102594.91
2022-10-28T07:14:29.786Z,102591.44
2022-10-28T07:19:27.104Z,102593.38
2022-10-28T07:24:23.843Z,102594.88
2022-10-28T07:29:20.504Z,102591.19
2022-10-28T07:34:27.357Z,102590.66
2022-10-28T07:39:24.997Z,102574.94
2022-10-28T07:44:21.601Z,102590.22
2022-10-28T07:49:18.736Z,102591.84
2022-10-28T07:54:16.032Z,102592.84
2022-10-28T07:59:24.316Z,102584.47
2022-10-28T08:04:27.169Z,102591.03
2022-10-28T08:09:24.005Z,102581.34
2022-10-28T08:14:21.699Z,102590.56
2022-10-28T08:19:18.920Z,102584.13
2022-10-28T08:24:15.774Z,102578.94
2022-10-28T08:29:12.472Z,102585.19
2022-10-28T08:34:14.655Z,102589.69
2022-10-28T08:39:11.937Z,102581.69
2022-10-28T08:44:23.457Z,102578.16
2022-10-28T08:49:22.225Z,102579.03
2022-10-28T08:54:22.740Z,102577.28
2022-10-28T08:59:24.414Z,102581.31
2022-10-28T09:04:26.441Z,102578.00
2022-10-28T09:09:27.471Z,102577.28
2022-10-28T09:14:39.054Z,102582.25
2022-10-28T09:19:40.216Z,102564.28
2022-10-28T09:24:51.376Z,102571.25
2022-10-28T09:29:50.563Z,102562.66
2022-10-28T09:35:00.722Z,102553.53
2022-10-28T09:40:02.711Z,102549.66
2022-10-28T09:45:12.282Z,102536.81
2022-10-28T09:50:15.722Z,102534.59
2022-10-28T09:55:26.587Z,102525.22
2022-10-28T10:00:23.342Z,102524.72
2022-10-28T10:05:21.696Z,102518.22
2022-10-28T10:10:22.285Z,102508.03
2022-10-28T10:15:21.890Z,102510.34
2022-10-28T10:20:19.231Z,102507.34
2022-10-28T10:25:32.940Z,102505.13
2022-10-28T10:30:31.373Z,102499.66
2022-10-28T10:35:30.393Z,102490.41
2022-10-28T10:40:30.570Z,102493.59
2022-10-28T10:45:27.428Z,102488.06
2022-10-28T10:50:28.848Z,102470.63
2022-10-28T10:55:32.977Z,102484.09
2022-10-28T11:00:32.005Z,102478.41
2022-10-28T11:05:35.601Z,102476.28
2022-10-28T11:10:36.769Z,102467.31
2022-10-28T11:15:37.099Z,102463.84
2022-10-28T11:20:43.953Z,102459.25
2022-10-28T11:25:45.184Z,102457.19
2022-10-28T11:30:52.712Z,102453.41
2022-10-28T11:35:57.244Z,102435.59
2022-10-28T11:41:01.556Z,102437.06
2022-10-28T11:46:03.610Z,102428.78
2022-10-28T11:51:06.096Z,102425.22
2022-10-28T11:56:08.796Z,102429.44
2022-10-28T12:01:15.158Z,102425.53
2022-10-28T12:06:15.617Z,102405.13
2022-10-28T12:11:21.051Z,102393.97
2022-10-28T12:16:20.706Z,102404.53
2022-10-28T12:21:20.466Z,102400.06
2022-10-28T12:26:19.954Z,102393.88
2022-10-28T12:31:22.137Z,102363.00
2022-10-28T12:36:24.331Z,102400.00
2022-10-28T12:41:25.918Z,102375.75
2022-10-28T12:46:30.415Z,102383.44
2022-10-28T12:51:35.159Z,102379.03
2022-10-28T12:56:38.359Z,102362.66
2022-10-28T13:01:46.092Z,102374.50
2022-10-28T13:07:08.540Z,102379.75
2022-10-28T13:12:23.262Z,102371.88
2022-10-28T13:17:40.267Z,102368.13
2022-10-28T13:22:48.371Z,102373.06
2022-10-28T13:27:45.132Z,102372.44
2022-10-28T13:32:45.565Z,102368.59
2022-10-28T13:37:52.812Z,102376.44
2022-10-28T13:42:55.540Z,102366.00
2022-10-28T13:48:14.414Z,102366.31
2022-10-28T13:53:43.823Z,102365.00
2022-10-28T13:58:49.001Z,102364.25
2022-10-28T14:03:52.037Z,102351.72
2022-10-28T14:08:50.946Z,102348.00
2022-10-28T14:13:49.778Z,102348.97
2022-10-28T14:18:52.504Z,102351.78
2022-10-28T14:24:15.985Z,102349.22
2022-10-28T14:29:29.536Z,102346.63
2022-10-28T14:34:40.441Z,102352.97
2022-10-28T14:39:41.430Z,102341.78
2022-10-28T14:44:52.769Z,102352.84
2022-10-28T14:49:58.430Z,102349.84
2022-10-28T14:54:57.501Z,102347.13
2022-10-28T14:59:55.508Z,102340.78
2022-10-28T15:05:00.253Z,102341.72
2022-10-28T15:09:57.531Z,102344.16
2022-10-28T15:14:58.447Z,102339.94
2022-10-28T15:19:57.599Z,102343.53
2022-10-28T15:24:55.154Z,102339.44
2022-10-28T15:29:53.432Z,102338.25
2022-10-28T15:34:53.741Z,102339.53
2022-10-28T15:40:12.543Z,102346.91
2022-10-28T15:45:16.467Z,102347.75
2022-10-28T15:50:35.827Z,102345.94
2022-10-28T16:01:01.118Z,102354.25
2022-10-28T16:06:00.329Z,102337.28
2022-10-28T16:11:02.010Z,102345.94
2022-10-28T16:16:00.423Z,102350.22
2022-10-28T16:21:00.113Z,102346.31
2022-10-28T16:26:18.154Z,102348.41
2022-10-28T16:37:25.225Z,102352.53
2022-10-28T16:42:22.098Z,102363.41
2022-10-28T16:47:19.933Z,102365.50
2022-10-28T16:52:23.624Z,102358.00
2022-10-28T16:57:21.181Z,102353.97
2022-10-28T17:02:20.129Z,102354.63
2022-10-28T17:07:28.509Z,102355.03
2022-10-28T17:12:28.535Z,102362.09
2022-10-28T17:17:25.105Z,102355.47
2022-10-28T17:22:22.265Z,102352.38
2022-10-28T17:27:20.206Z,102357.03
2022-10-28T17:32:18.193Z,102358.09
2022-10-28T17:37:18.030Z,102350.31
2022-10-28T17:42:14.771Z,102353.06
2022-10-28T17:47:12.238Z,102349.00
2022-10-28T17:52:09.743Z,102354.31
2022-10-28T17:57:06.589Z,102345.66
2022-10-28T18:02:07.851Z,102345.72
2022-10-28T18:07:07.544Z,102328.66
2022-10-28T18:12:08.186Z,102347.19
2022-10-28T18:17:07.598Z,102340.03
2022-10-28T18:22:04.307Z,102336.31
2022-10-28T18:27:00.985Z,102331.88
2022-10-28T18:32:04.023Z,102335.25
2022-10-28T18:37:03.426Z,102338.09
2022-10-28T18:42:00.393Z,102333.50
2022-10-28T18:46:57.058Z,102332.66
2022-10-28T18:51:54.447Z,102325.63
2022-10-28T18:56:53.681Z,102340.81
2022-10-28T19:01:56.450Z,102342.06
2022-10-28T19:06:55.938Z,102338.16
2022-10-28T19:11:54.275Z,102342.94
2022-10-28T19:16:50.866Z,102348.66
2022-10-28T19:21:47.630Z,102355.63
2022-10-28T19:26:44.208Z,102359.56
2022-10-28T19:31:46.021Z,102361.25
2022-10-28T19:36:44.846Z,102324.88
2022-10-28T19:41:42.732Z,102360.22
2022-10-28T19:46:39.329Z,102350.88
2022-10-28T19:51:40.412Z,102370.66
2022-10-28T19:56:37.803Z,102362.34
2022-10-28T20:01:37.698Z,102374.94
2022-10-28T20:06:35.113Z,102371.75
2022-10-28T20:11:39.385Z,102371.41
2022-10-28T20:17:19.527Z,102370.31
2022-10-28T20:22:09.389Z,102357.91
2022-10-28T20:27:06.674Z,102379.31
2022-10-28T20:32:03.352Z,102359.50
2022-10-28T20:36:59.821Z,102359.69
2022-10-28T20:41:57.332Z,102380.03
2022-10-28T20:46:54.557Z,102382.22
2022-10-28T20:51:51.115Z,102370.09
2022-10-28T20:56:51.261Z,102365.91
2022-10-28T21:01:50.828Z,102369.09
2022-10-28T21:06:51.229Z,102362.34
2022-10-28T21:11:47.777Z,102359.72
2022-10-28T21:16:44.319Z,102366.53
2022-10-28T21:21:44.011Z,102359.00
2022-10-28T21:26:42.493Z,102353.31
2022-10-28T21:31:39.273Z,102366.44
2022-10-28T21:36:35.989Z,102360.09
2022-10-28T21:41:33.773Z,102366.00
2022-10-28T21:46:31.244Z,102361.19
2022-10-28T21:51:29.117Z,102359.75
2022-10-28T21:56:26.910Z,102364.13
2022-10-28T22:01:23.984Z,102353.44
2022-10-28T22:06:21.660Z,102351.06
2022-10-28T22:11:19.159Z,102349.66
2022-10-28T22:16:16.712Z,102340.16
2022-10-28T22:21:14.488Z,102341.78
2022-10-28T22:26:16.066Z,102335.81
2022-10-28T22:31:16.137Z,102328.94
2022-10-28T22:36:14.942Z,102330.59
2022-10-28T22:41:15.882Z,102325.84
2022-10-28T22:46:14.498Z,102320.69
2022-10-28T22:51:11.064Z,102319.03
2022-10-28T22:56:13.138Z,102320.69
2022-10-28T23:01:11.877Z,102317.66
2022-10-28T23:06:11.796Z,102317.53
2022-10-28T23:11:11.629Z,102316.22
2022-10-28T23:16:10.508Z,102325.66
2022-10-28T23:21:11.728Z,102318.88
2022-10-28T23:26:11.977Z,102311.22
2022-10-28T23:31:10.013Z,102307.63
2022-10-28T23:36:07.601Z,102306.06
2022-10-28T23:41:08.066Z,102311.56
2022-10-28T23:46:07.340Z,102311.97
2022-10-28T23:51:07.087Z,102312.06
2022-10-28T23:56:06.559Z,102314.72
